John F Kennedy International Airport

KJFK | JFK

New York , New-York , United States

Friday, November 22nd, 2019 | 02:28

Weather

KJFK 220651Z 21009KT 10SM BKN090 OVC140 09/03 A2997 RMK AO2 SLP149 T00890033 $

Charts

55 Available

Gates

335 Available

Runways

4 Available

Events

No events for this airport


New event